sensor_id;sensor_type;location;lat;lon;timestamp;pressure;altitude;pressure_sealevel;temperature;humidity
27294;BME280;14785;52.556;13.430;2024-01-30T00:01:39;-19598.56;;;6.62;100.00
27294;BME280;14785;52.556;13.430;2024-01-30T00:04:04;-19601.28;;;6.71;100.00
27294;BME280;14785;52.556;13.430;2024-01-30T00:06:30;-19600.84;;;6.70;100.00
27294;BME280;14785;52.556;13.430;2024-01-30T00:08:56;-19598.72;;;6.63;100.00
27294;BME280;14785;52.556;13.430;2024-01-30T00:11:22;-19595.34;;;6.52;100.00
27294;BME280;14785;52.556;13.430;2024-01-30T00:13:47;-19596.72;;;6.56;100.00
27294;BME280;14785;52.556;13.430;2024-01-30T00:16:22;-19595.81;;;6.53;100.00
27294;BME280;14785;52.556;13.430;2024-01-30T00:18:50;-19591.56;;;6.39;100.00
27294;BME280;14785;52.556;13.430;2024-01-30T00:21:15;-19596.44;;;6.55;100.00
27294;BME280;14785;52.556;13.430;2024-01-30T00:23:40;-19590.50;;;6.36;100.00
27294;BME280;14785;52.556;13.430;2024-01-30T00:26:06;-19593.06;;;6.44;100.00
27294;BME280;14785;52.556;13.430;2024-01-30T00:28:31;-19595.66;;;6.53;100.00
27294;BME280;14785;52.556;13.430;2024-01-30T00:30:57;-19594.91;;;6.50;100.00
27294;BME280;14785;52.556;13.430;2024-01-30T00:33:22;-19599.78;;;6.66;100.00
27294;BME280;14785;52.556;13.430;2024-01-30T00:35:47;-19590.94;;;6.37;100.00
27294;BME280;14785;52.556;13.430;2024-01-30T00:38:13;-19592.47;;;6.42;100.00
27294;BME280;14785;52.556;13.430;2024-01-30T00:40:38;-19588.38;;;6.29;100.00
27294;BME280;14785;52.556;13.430;2024-01-30T00:43:03;-19592.47;;;6.42;100.00
27294;BME280;14785;52.556;13.430;2024-01-30T00:45:29;-19585.16;;;6.18;100.00
27294;BME280;14785;52.556;13.430;2024-01-30T00:47:54;-19587.00;;;6.24;100.00
27294;BME280;14785;52.556;13.430;2024-01-30T00:50:20;-19590.50;;;6.36;100.00
27294;BME280;14785;52.556;13.430;2024-01-30T00:52:45;-19587.44;;;6.26;100.00
27294;BME280;14785;52.556;13.430;2024-01-30T00:55:11;-19589.72;;;6.33;100.00
27294;BME280;14785;52.556;13.430;2024-01-30T00:57:36;-19595.81;;;6.53;100.00
27294;BME280;14785;52.556;13.430;2024-01-30T01:00:02;-19593.69;;;6.46;100.00
27294;BME280;14785;52.556;13.430;2024-01-30T01:02:28;-19584.56;;;6.16;100.00
27294;BME280;14785;52.556;13.430;2024-01-30T01:04:53;-19580.00;;;6.01;100.00
27294;BME280;14785;52.556;13.430;2024-01-30T01:07:19;-19576.97;;;5.91;100.00
27294;BME280;14785;52.556;13.430;2024-01-30T01:09:44;-19579.84;;;6.01;100.00
27294;BME280;14785;52.556;13.430;2024-01-30T01:12:09;-19576.34;;;5.89;100.00
27294;BME280;14785;52.556;13.430;2024-01-30T01:14:35;-19574.69;;;5.83;100.00
27294;BME280;14785;52.556;13.430;2024-01-30T01:17:01;-19575.13;;;5.85;100.00
27294;BME280;14785;52.556;13.430;2024-01-30T01:19:27;-19570.88;;;5.71;100.00
27294;BME280;14785;52.556;13.430;2024-01-30T01:21:52;-19569.66;;;5.67;100.00
27294;BME280;14785;52.556;13.430;2024-01-30T01:24:18;-19574.53;;;5.83;100.00
27294;BME280;14785;52.556;13.430;2024-01-30T01:26:43;-19572.41;;;5.76;100.00
27294;BME280;14785;52.556;13.430;2024-01-30T01:29:09;-19574.84;;;5.84;100.00
27294;BME280;14785;52.556;13.430;2024-01-30T01:31:37;-19576.81;;;5.91;100.00
27294;BME280;14785;52.556;13.430;2024-01-30T01:34:09;-19575.91;;;5.88;100.00
27294;BME280;14785;52.556;13.430;2024-01-30T01:36:35;-19578.03;;;5.95;100.00
27294;BME280;14785;52.556;13.430;2024-01-30T01:39:01;-19571.47;;;5.73;100.00
27294;BME280;14785;52.556;13.430;2024-01-30T01:41:30;-19570.41;;;5.69;100.00
27294;BME280;14785;52.556;13.430;2024-01-30T01:43:56;-19570.25;;;5.69;100.00
27294;BME280;14785;52.556;13.430;2024-01-30T01:46:22;-19575.75;;;5.87;100.00
27294;BME280;14785;52.556;13.430;2024-01-30T01:48:47;-19581.22;;;6.05;100.00
27294;BME280;14785;52.556;13.430;2024-01-30T01:51:14;-19576.66;;;5.90;100.00
27294;BME280;14785;52.556;13.430;2024-01-30T01:53:39;-19576.66;;;5.90;100.00
27294;BME280;14785;52.556;13.430;2024-01-30T01:56:05;-19576.06;;;5.88;100.00
27294;BME280;14785;52.556;13.430;2024-01-30T01:58:31;-19571.78;;;5.74;100.00
27294;BME280;14785;52.556;13.430;2024-01-30T02:00:59;-19572.09;;;5.75;100.00
27294;BME280;14785;52.556;13.430;2024-01-30T02:03:24;-19574.69;;;5.83;100.00
27294;BME280;14785;52.556;13.430;2024-01-30T02:05:53;-19578.47;;;5.96;100.00
27294;BME280;14785;52.556;13.430;2024-01-30T02:08:20;-19574.69;;;5.83;100.00
27294;BME280;14785;52.556;13.430;2024-01-30T02:10:45;-19574.22;;;5.82;100.00
27294;BME280;14785;52.556;13.430;2024-01-30T02:13:11;-19573.31;;;5.79;100.00
27294;BME280;14785;52.556;13.430;2024-01-30T02:15:36;-19561.59;;;5.40;100.00
27294;BME280;14785;52.556;13.430;2024-01-30T02:18:02;-19561.75;;;5.41;100.00
27294;BME280;14785;52.556;13.430;2024-01-30T02:20:29;-19565.69;;;5.54;100.00
27294;BME280;14785;52.556;13.430;2024-01-30T02:22:55;-19565.41;;;5.53;100.00
27294;BME280;14785;52.556;13.430;2024-01-30T02:25:31;-19562.19;;;5.42;100.00
27294;BME280;14785;52.556;13.430;2024-01-30T02:27:56;-19573.16;;;5.78;100.00
27294;BME280;14785;52.556;13.430;2024-01-30T02:30:22;-19573.91;;;5.81;100.00
27294;BME280;14785;52.556;13.430;2024-01-30T02:32:47;-19573.59;;;5.80;100.00
27294;BME280;14785;52.556;13.430;2024-01-30T02:35:13;-19568.59;;;5.63;100.00
27294;BME280;14785;52.556;13.430;2024-01-30T02:37:38;-19572.09;;;5.75;100.00
27294;BME280;14785;52.556;13.430;2024-01-30T02:40:04;-19571.47;;;5.73;100.00
27294;BME280;14785;52.556;13.430;2024-01-30T02:42:29;-19570.88;;;5.71;100.00
27294;BME280;14785;52.556;13.430;2024-01-30T02:44:55;-19571.63;;;5.73;100.00
27294;BME280;14785;52.556;13.430;2024-01-30T02:47:20;-19566.91;;;5.58;100.00
27294;BME280;14785;52.556;13.430;2024-01-30T02:49:46;-19565.84;;;5.54;100.00
27294;BME280;14785;52.556;13.430;2024-01-30T02:52:11;-19569.50;;;5.66;100.00
27294;BME280;14785;52.556;13.430;2024-01-30T02:54:36;-19568.91;;;5.64;100.00
27294;BME280;14785;52.556;13.430;2024-01-30T02:57:02;-19569.97;;;5.68;100.00
27294;BME280;14785;52.556;13.430;2024-01-30T02:59:27;-19572.69;;;5.77;100.00
27294;BME280;14785;52.556;13.430;2024-01-30T03:01:52;-19569.50;;;5.66;100.00
27294;BME280;14785;52.556;13.430;2024-01-30T03:04:18;-19570.25;;;5.69;100.00
27294;BME280;14785;52.556;13.430;2024-01-30T03:06:46;-19570.25;;;5.69;100.00
27294;BME280;14785;52.556;13.430;2024-01-30T03:09:16;-19565.09;;;5.52;100.00
27294;BME280;14785;52.556;13.430;2024-01-30T03:11:42;-19562.97;;;5.45;100.00
27294;BME280;14785;52.556;13.430;2024-01-30T03:14:08;-19565.84;;;5.54;100.00
27294;BME280;14785;52.556;13.430;2024-01-30T03:16:36;-19567.53;;;5.60;100.00
27294;BME280;14785;52.556;13.430;2024-01-30T03:19:02;-19576.50;;;5.90;100.00
27294;BME280;14785;52.556;13.430;2024-01-30T03:21:28;-19567.53;;;5.60;100.00
27294;BME280;14785;52.556;13.430;2024-01-30T03:23:54;-19569.19;;;5.65;100.00
27294;BME280;14785;52.556;13.430;2024-01-30T03:26:19;-19570.25;;;5.69;100.00
27294;BME280;14785;52.556;13.430;2024-01-30T03:28:44;-19572.41;;;5.76;100.00
27294;BME280;14785;52.556;13.430;2024-01-30T03:31:13;-19577.25;;;5.92;100.00
27294;BME280;14785;52.556;13.430;2024-01-30T03:33:39;-19576.06;;;5.88;100.00
27294;BME280;14785;52.556;13.430;2024-01-30T03:36:05;-19574.84;;;5.84;100.00
27294;BME280;14785;52.556;13.430;2024-01-30T03:38:30;-19569.34;;;5.66;100.00
27294;BME280;14785;52.556;13.430;2024-01-30T03:40:58;-19568.44;;;5.63;100.00
27294;BME280;14785;52.556;13.430;2024-01-30T03:43:23;-19566.75;;;5.57;100.00
27294;BME280;14785;52.556;13.430;2024-01-30T03:45:49;-19558.56;;;5.30;100.00
27294;BME280;14785;52.556;13.430;2024-01-30T03:48:14;-19567.22;;;5.59;100.00
27294;BME280;14785;52.556;13.430;2024-01-30T03:50:40;-19564.19;;;5.49;100.00
27294;BME280;14785;52.556;13.430;2024-01-30T03:53:05;-19561.13;;;5.39;100.00
27294;BME280;14785;52.556;13.430;2024-01-30T03:55:31;-19554.59;;;5.17;100.00
27294;BME280;14785;52.556;13.430;2024-01-30T03:57:56;-19555.19;;;5.19;100.00
27294;BME280;14785;52.556;13.430;2024-01-30T04:00:21;-19555.50;;;5.20;100.00
27294;BME280;14785;52.556;13.430;2024-01-30T04:02:47;-19560.22;;;5.36;100.00
27294;BME280;14785;52.556;13.430;2024-01-30T04:05:12;-19562.66;;;5.44;100.00
27294;BME280;14785;52.556;13.430;2024-01-30T04:07:37;-19562.97;;;5.45;100.00
27294;BME280;14785;52.556;13.430;2024-01-30T04:10:03;-19559.63;;;5.34;100.00
27294;BME280;14785;52.556;13.430;2024-01-30T04:12:31;-19566.00;;;5.55;100.00
27294;BME280;14785;52.556;13.430;2024-01-30T04:14:56;-19559.47;;;5.33;100.00
27294;BME280;14785;52.556;13.430;2024-01-30T04:17:21;-19563.41;;;5.46;100.00
27294;BME280;14785;52.556;13.430;2024-01-30T04:19:47;-19561.13;;;5.39;100.00
27294;BME280;14785;52.556;13.430;2024-01-30T04:22:12;-19558.41;;;5.30;100.00
27294;BME280;14785;52.556;13.430;2024-01-30T04:24:38;-19562.66;;;5.44;100.00
27294;BME280;14785;52.556;13.430;2024-01-30T04:27:03;-19560.53;;;5.37;100.00
27294;BME280;14785;52.556;13.430;2024-01-30T04:29:29;-19562.66;;;5.44;100.00
27294;BME280;14785;52.556;13.430;2024-01-30T04:31:54;-19564.47;;;5.50;100.00
27294;BME280;14785;52.556;13.430;2024-01-30T04:34:19;-19565.09;;;5.52;100.00
27294;BME280;14785;52.556;13.430;2024-01-30T04:36:45;-19568.91;;;5.64;100.00
27294;BME280;14785;52.556;13.430;2024-01-30T04:39:11;-19572.09;;;5.75;100.00
27294;BME280;14785;52.556;13.430;2024-01-30T04:41:37;-19566.63;;;5.57;100.00
27294;BME280;14785;52.556;13.430;2024-01-30T04:44:03;-19567.84;;;5.61;100.00
27294;BME280;14785;52.556;13.430;2024-01-30T04:46:28;-19563.88;;;5.48;100.00
27294;BME280;14785;52.556;13.430;2024-01-30T04:48:53;-19554.28;;;5.16;100.00
27294;BME280;14785;52.556;13.430;2024-01-30T04:51:19;-19560.38;;;5.36;100.00
27294;BME280;14785;52.556;13.430;2024-01-30T04:53:44;-19568.59;;;5.63;100.00
27294;BME280;14785;52.556;13.430;2024-01-30T04:56:09;-19565.09;;;5.52;100.00
27294;BME280;14785;52.556;13.430;2024-01-30T04:58:35;-19563.28;;;5.46;100.00
27294;BME280;14785;52.556;13.430;2024-01-30T05:01:02;-19561.13;;;5.39;100.00
27294;BME280;14785;52.556;13.430;2024-01-30T05:03:27;-19557.94;;;5.28;100.00
27294;BME280;14785;52.556;13.430;2024-01-30T05:05:52;-19564.78;;;5.51;100.00
27294;BME280;14785;52.556;13.430;2024-01-30T05:08:18;-19561.13;;;5.39;100.00
27294;BME280;14785;52.556;13.430;2024-01-30T05:10:43;-19567.53;;;5.60;100.00
27294;BME280;14785;52.556;13.430;2024-01-30T05:13:08;-19569.34;;;5.66;100.00
27294;BME280;14785;52.556;13.430;2024-01-30T05:15:34;-19571.63;;;5.73;100.00
27294;BME280;14785;52.556;13.430;2024-01-30T05:17:59;-19568.44;;;5.63;100.00
27294;BME280;14785;52.556;13.430;2024-01-30T05:20:24;-19568.13;;;5.62;100.00
27294;BME280;14785;52.556;13.430;2024-01-30T05:22:53;-19566.63;;;5.57;100.00
27294;BME280;14785;52.556;13.430;2024-01-30T05:25:18;-19565.69;;;5.54;100.00
27294;BME280;14785;52.556;13.430;2024-01-30T05:27:44;-19562.03;;;5.42;100.00
27294;BME280;14785;52.556;13.430;2024-01-30T05:30:10;-19560.06;;;5.35;100.00
27294;BME280;14785;52.556;13.430;2024-01-30T05:32:35;-19561.44;;;5.40;100.00
27294;BME280;14785;52.556;13.430;2024-01-30T05:35:01;-19553.84;;;5.15;100.00
27294;BME280;14785;52.556;13.430;2024-01-30T05:37:26;-19563.28;;;5.46;100.00
27294;BME280;14785;52.556;13.430;2024-01-30T05:39:52;-19559.00;;;5.32;100.00
27294;BME280;14785;52.556;13.430;2024-01-30T05:42:17;-19556.41;;;5.23;100.00
27294;BME280;14785;52.556;13.430;2024-01-30T05:44:42;-19557.78;;;5.28;100.00
27294;BME280;14785;52.556;13.430;2024-01-30T05:47:08;-19557.03;;;5.25;100.00
27294;BME280;14785;52.556;13.430;2024-01-30T05:49:33;-19555.19;;;5.19;100.00
27294;BME280;14785;52.556;13.430;2024-01-30T05:52:00;-19550.66;;;5.04;100.00
27294;BME280;14785;52.556;13.430;2024-01-30T05:54:25;-19550.19;;;5.03;100.00
27294;BME280;14785;52.556;13.430;2024-01-30T05:56:51;-19556.88;;;5.25;100.00
27294;BME280;14785;52.556;13.430;2024-01-30T05:59:16;-19559.31;;;5.33;100.00
27294;BME280;14785;52.556;13.430;2024-01-30T06:01:48;-19552.00;;;5.09;100.00
27294;BME280;14785;52.556;13.430;2024-01-30T06:04:14;-19560.38;;;5.36;100.00
27294;BME280;14785;52.556;13.430;2024-01-30T06:06:41;-19560.38;;;5.36;100.00
27294;BME280;14785;52.556;13.430;2024-01-30T06:09:06;-19560.22;;;5.36;100.00
27294;BME280;14785;52.556;13.430;2024-01-30T06:11:34;-19558.72;;;5.31;100.00
27294;BME280;14785;52.556;13.430;2024-01-30T06:13:59;-19560.22;;;5.36;100.00
27294;BME280;14785;52.556;13.430;2024-01-30T06:16:25;-19554.44;;;5.17;100.00
27294;BME280;14785;52.556;13.430;2024-01-30T06:18:54;-19551.41;;;5.07;100.00
27294;BME280;14785;52.556;13.430;2024-01-30T06:21:20;-19552.47;;;5.10;100.00
27294;BME280;14785;52.556;13.430;2024-01-30T06:23:45;-19554.13;;;5.16;100.00
27294;BME280;14785;52.556;13.430;2024-01-30T06:26:11;-19550.94;;;5.05;100.00
27294;BME280;14785;52.556;13.430;2024-01-30T06:28:36;-19550.19;;;5.03;100.00
27294;BME280;14785;52.556;13.430;2024-01-30T06:31:02;-19547.44;;;4.94;100.00
27294;BME280;14785;52.556;13.430;2024-01-30T06:33:27;-19552.94;;;5.12;100.00
27294;BME280;14785;52.556;13.430;2024-01-30T06:35:52;-19559.63;;;5.34;100.00
27294;BME280;14785;52.556;13.430;2024-01-30T06:38:18;-19555.34;;;5.20;100.00
27294;BME280;14785;52.556;13.430;2024-01-30T06:40:43;-19550.34;;;5.03;100.00
27294;BME280;14785;52.556;13.430;2024-01-30T06:43:09;-19559.16;;;5.32;100.00
27294;BME280;14785;52.556;13.430;2024-01-30T06:45:34;-19557.47;;;5.27;100.00
27294;BME280;14785;52.556;13.430;2024-01-30T06:48:00;-19551.84;;;5.08;100.00
27294;BME280;14785;52.556;13.430;2024-01-30T06:50:26;-19550.78;;;5.05;100.00
27294;BME280;14785;52.556;13.430;2024-01-30T06:52:51;-19551.56;;;5.07;100.00
27294;BME280;14785;52.556;13.430;2024-01-30T06:55:18;-19554.44;;;5.17;100.00
27294;BME280;14785;52.556;13.430;2024-01-30T06:57:43;-19552.47;;;5.10;100.00
27294;BME280;14785;52.556;13.430;2024-01-30T07:00:09;-19554.44;;;5.17;100.00
27294;BME280;14785;52.556;13.430;2024-01-30T07:02:34;-19556.41;;;5.23;100.00
27294;BME280;14785;52.556;13.430;2024-01-30T07:05:00;-19553.06;;;5.12;100.00
27294;BME280;14785;52.556;13.430;2024-01-30T07:07:25;-19552.31;;;5.10;100.00
27294;BME280;14785;52.556;13.430;2024-01-30T07:09:50;-19549.56;;;5.01;100.00
27294;BME280;14785;52.556;13.430;2024-01-30T07:12:21;-19550.78;;;5.05;100.00
27294;BME280;14785;52.556;13.430;2024-01-30T07:14:47;-19553.84;;;5.15;100.00
27294;BME280;14785;52.556;13.430;2024-01-30T07:17:12;-19552.00;;;5.09;100.00
27294;BME280;14785;52.556;13.430;2024-01-30T07:19:38;-19553.84;;;5.15;100.00
27294;BME280;14785;52.556;13.430;2024-01-30T07:22:03;-19556.13;;;5.22;100.00
27294;BME280;14785;52.556;13.430;2024-01-30T07:24:29;-19554.75;;;5.18;100.00
27294;BME280;14785;52.556;13.430;2024-01-30T07:26:54;-19557.34;;;5.26;100.00
27294;BME280;14785;52.556;13.430;2024-01-30T07:29:20;-19551.72;;;5.08;100.00
27294;BME280;14785;52.556;13.430;2024-01-30T07:31:45;-19553.84;;;5.15;100.00
27294;BME280;14785;52.556;13.430;2024-01-30T07:34:11;-19551.25;;;5.06;100.00
27294;BME280;14785;52.556;13.430;2024-01-30T07:36:37;-19551.84;;;5.08;100.00
27294;BME280;14785;52.556;13.430;2024-01-30T07:39:02;-19553.53;;;5.14;100.00
27294;BME280;14785;52.556;13.430;2024-01-30T07:41:28;-19552.47;;;5.10;100.00
27294;BME280;14785;52.556;13.430;2024-01-30T07:43:53;-19554.28;;;5.16;100.00
27294;BME280;14785;52.556;13.430;2024-01-30T07:46:19;-19555.66;;;5.21;100.00
27294;BME280;14785;52.556;13.430;2024-01-30T07:48:44;-19559.00;;;5.32;100.00
27294;BME280;14785;52.556;13.430;2024-01-30T07:51:09;-19559.75;;;5.34;100.00
27294;BME280;14785;52.556;13.430;2024-01-30T07:53:35;-19563.28;;;5.46;100.00
27294;BME280;14785;52.556;13.430;2024-01-30T07:56:00;-19562.03;;;5.42;100.00
27294;BME280;14785;52.556;13.430;2024-01-30T07:58:26;-19563.88;;;5.48;100.00
27294;BME280;14785;52.556;13.430;2024-01-30T08:00:53;-19561.91;;;5.41;100.00
27294;BME280;14785;52.556;13.430;2024-01-30T08:03:18;-19562.03;;;5.42;100.00
27294;BME280;14785;52.556;13.430;2024-01-30T08:05:44;-19562.34;;;5.43;100.00
27294;BME280;14785;52.556;13.430;2024-01-30T08:08:09;-19561.44;;;5.40;100.00
27294;BME280;14785;52.556;13.430;2024-01-30T08:10:36;-19553.22;;;5.13;100.00
27294;BME280;14785;52.556;13.430;2024-01-30T08:13:01;-19560.53;;;5.37;100.00
27294;BME280;14785;52.556;13.430;2024-01-30T08:15:27;-19568.75;;;5.64;100.00
27294;BME280;14785;52.556;13.430;2024-01-30T08:17:52;-19569.66;;;5.67;100.00
27294;BME280;14785;52.556;13.430;2024-01-30T08:20:25;-19576.06;;;5.88;100.00
27294;BME280;14785;52.556;13.430;2024-01-30T08:22:51;-19571.31;;;5.72;100.00
27294;BME280;14785;52.556;13.430;2024-01-30T08:25:16;-19569.34;;;5.66;100.00
27294;BME280;14785;52.556;13.430;2024-01-30T08:27:42;-19572.41;;;5.76;100.00
27294;BME280;14785;52.556;13.430;2024-01-30T08:30:07;-19573.91;;;5.81;100.00
27294;BME280;14785;52.556;13.430;2024-01-30T08:32:33;-19573.31;;;5.79;100.00
27294;BME280;14785;52.556;13.430;2024-01-30T08:34:59;-19575.44;;;5.86;100.00
27294;BME280;14785;52.556;13.430;2024-01-30T08:37:25;-19576.06;;;5.88;100.00
27294;BME280;14785;52.556;13.430;2024-01-30T08:39:50;-19583.34;;;6.12;100.00
27294;BME280;14785;52.556;13.430;2024-01-30T08:42:15;-19581.97;;;6.08;100.00
27294;BME280;14785;52.556;13.430;2024-01-30T08:44:43;-19581.53;;;6.06;100.00
27294;BME280;14785;52.556;13.430;2024-01-30T08:47:09;-19587.75;;;6.27;100.00
27294;BME280;14785;52.556;13.430;2024-01-30T08:49:34;-19590.94;;;6.37;100.00
27294;BME280;14785;52.556;13.430;2024-01-30T08:52:00;-19596.13;;;6.54;100.00
27294;BME280;14785;52.556;13.430;2024-01-30T08:54:25;-19598.84;;;6.63;100.00
27294;BME280;14785;52.556;13.430;2024-01-30T08:56:50;-19601.59;;;6.72;100.00
27294;BME280;14785;52.556;13.430;2024-01-30T08:59:17;-19602.81;;;6.76;100.00
27294;BME280;14785;52.556;13.430;2024-01-30T09:01:42;-19610.72;;;7.02;100.00
27294;BME280;14785;52.556;13.430;2024-01-30T09:04:08;-19615.28;;;7.17;100.00
27294;BME280;14785;52.556;13.430;2024-01-30T09:06:33;-19614.34;;;7.14;100.00
27294;BME280;14785;52.556;13.430;2024-01-30T09:08:58;-19620.91;;;7.36;100.00
27294;BME280;14785;52.556;13.430;2024-01-30T09:11:24;-19614.97;;;7.16;100.00
27294;BME280;14785;52.556;13.430;2024-01-30T09:13:50;-19617.41;;;7.24;100.00
27294;BME280;14785;52.556;13.430;2024-01-30T09:16:15;-19619.84;;;7.32;100.00
27294;BME280;14785;52.556;13.430;2024-01-30T09:18:41;-19622.41;;;7.41;100.00
27294;BME280;14785;52.556;13.430;2024-01-30T09:21:07;-19628.34;;;7.60;100.00
27294;BME280;14785;52.556;13.430;2024-01-30T09:23:33;-19614.97;;;7.16;100.00
27294;BME280;14785;52.556;13.430;2024-01-30T09:25:59;-19611.63;;;7.05;100.00
27294;BME280;14785;52.556;13.430;2024-01-30T09:28:24;-19622.13;;;7.40;100.00
27294;BME280;14785;52.556;13.430;2024-01-30T09:30:50;-19626.81;;;7.55;100.00
27294;BME280;14785;52.556;13.430;2024-01-30T09:33:15;-19628.19;;;7.60;100.00
27294;BME280;14785;52.556;13.430;2024-01-30T09:35:41;-19619.06;;;7.30;100.00
27294;BME280;14785;52.556;13.430;2024-01-30T09:38:06;-19622.56;;;7.41;100.00
27294;BME280;14785;52.556;13.430;2024-01-30T09:40:32;-19618.75;;;7.29;100.00
27294;BME280;14785;52.556;13.430;2024-01-30T09:42:58;-19623.19;;;7.43;100.00
27294;BME280;14785;52.556;13.430;2024-01-30T09:45:25;-19632.44;;;7.74;100.00
27294;BME280;14785;52.556;13.430;2024-01-30T09:47:51;-19634.41;;;7.80;100.00
27294;BME280;14785;52.556;13.430;2024-01-30T09:50:17;-19638.69;;;7.95;100.00
27294;BME280;14785;52.556;13.430;2024-01-30T09:52:47;-19639.59;;;7.98;100.00
27294;BME280;14785;52.556;13.430;2024-01-30T09:55:13;-19633.81;;;7.78;100.00
27294;BME280;14785;52.556;13.430;2024-01-30T09:57:39;-19632.13;;;7.73;100.00
27294;BME280;14785;52.556;13.430;2024-01-30T10:00:06;-19630.78;;;7.68;100.00
27294;BME280;14785;52.556;13.430;2024-01-30T10:02:35;-19628.66;;;7.61;100.00
27294;BME280;14785;52.556;13.430;2024-01-30T10:05:00;-19635.03;;;7.82;100.00
27294;BME280;14785;52.556;13.430;2024-01-30T10:07:26;-19638.38;;;7.94;100.00
27294;BME280;14785;52.556;13.430;2024-01-30T10:09:53;-19636.84;;;7.89;100.00
27294;BME280;14785;52.556;13.430;2024-01-30T10:12:18;-19643.84;;;8.12;100.00
27294;BME280;14785;52.556;13.430;2024-01-30T10:14:44;-19645.34;;;8.17;100.00
27294;BME280;14785;52.556;13.430;2024-01-30T10:17:11;-19648.69;;;8.28;100.00
27294;BME280;14785;52.556;13.430;2024-01-30T10:19:41;-19645.34;;;8.17;100.00
27294;BME280;14785;52.556;13.430;2024-01-30T10:22:07;-19643.53;;;8.11;100.00
27294;BME280;14785;52.556;13.430;2024-01-30T10:24:36;-19646.56;;;8.21;100.00
27294;BME280;14785;52.556;13.430;2024-01-30T10:27:02;-19649.91;;;8.32;100.00
27294;BME280;14785;52.556;13.430;2024-01-30T10:29:28;-19654.78;;;8.48;100.00
27294;BME280;14785;52.556;13.430;2024-01-30T10:32:04;-19660.41;;;8.66;100.00
27294;BME280;14785;52.556;13.430;2024-01-30T10:34:30;-19657.22;;;8.56;100.00
27294;BME280;14785;52.556;13.430;2024-01-30T10:37:09;-19669.19;;;8.95;100.00
27294;BME280;14785;52.556;13.430;2024-01-30T10:39:40;-19661.63;;;8.70;100.00
27294;BME280;14785;52.556;13.430;2024-01-30T10:42:13;-19663.59;;;8.77;100.00
27294;BME280;14785;52.556;13.430;2024-01-30T10:47:19;-19655.22;;;8.49;100.00
27294;BME280;14785;52.556;13.430;2024-01-30T10:49:47;-19659.50;;;8.63;100.00
27294;BME280;14785;52.556;13.430;2024-01-30T10:52:13;-19664.19;;;8.79;100.00
27294;BME280;14785;52.556;13.430;2024-01-30T10:54:40;-19662.38;;;8.73;100.00
27294;BME280;14785;52.556;13.430;2024-01-30T10:57:05;-19666.47;;;8.86;100.00
27294;BME280;14785;52.556;13.430;2024-01-30T10:59:32;-19678.78;;;9.27;100.00
27294;BME280;14785;52.556;13.430;2024-01-30T11:01:58;-19680.59;;;9.33;100.00
27294;BME280;14785;52.556;13.430;2024-01-30T11:04:24;-19677.72;;;9.23;100.00
27294;BME280;14785;52.556;13.430;2024-01-30T11:06:50;-19683.94;;;9.44;100.00
27294;BME280;14785;52.556;13.430;2024-01-30T11:09:17;-19691.66;;;9.69;100.00
27294;BME280;14785;52.556;13.430;2024-01-30T11:11:56;-19670.28;;;8.99;100.00
27294;BME280;14785;52.556;13.430;2024-01-30T11:14:26;-19677.56;;;9.23;100.00
27294;BME280;14785;52.556;13.430;2024-01-30T11:16:51;-19663.59;;;8.77;100.00
27294;BME280;14785;52.556;13.430;2024-01-30T11:19:23;-19683.78;;;9.43;100.00
27294;BME280;14785;52.556;13.430;2024-01-30T11:21:50;-19672.69;;;9.07;100.00
27294;BME280;14785;52.556;13.430;2024-01-30T11:24:20;-19677.56;;;9.23;100.00
27294;BME280;14785;52.556;13.430;2024-01-30T11:26:55;-19679.69;;;9.30;100.00
27294;BME280;14785;52.556;13.430;2024-01-30T11:29:27;-19683.63;;;9.43;100.00
27294;BME280;14785;52.556;13.430;2024-01-30T11:31:57;-19689.69;;;9.63;100.00
27294;BME280;14785;52.556;13.430;2024-01-30T11:34:23;-19680.88;;;9.34;100.00
27294;BME280;14785;52.556;13.430;2024-01-30T11:36:52;-19692.13;;;9.71;100.00
27294;BME280;14785;52.556;13.430;2024-01-30T11:39:24;-19693.03;;;9.74;100.00
27294;BME280;14785;52.556;13.430;2024-01-30T11:41:53;-19706.69;;;10.19;100.00
27294;BME280;14785;52.556;13.430;2024-01-30T11:44:22;-19686.97;;;9.54;100.00
27294;BME280;14785;52.556;13.430;2024-01-30T11:46:48;-19698.19;;;9.91;100.00
27294;BME280;14785;52.556;13.430;2024-01-30T11:49:14;-19684.38;;;9.45;100.00
27294;BME280;14785;52.556;13.430;2024-01-30T11:51:40;-19697.28;;;9.88;100.00
27294;BME280;14785;52.556;13.430;2024-01-30T11:54:07;-19700.16;;;9.98;100.00
27294;BME280;14785;52.556;13.430;2024-01-30T11:56:32;-19696.97;;;9.87;100.00
27294;BME280;14785;52.556;13.430;2024-01-30T11:58:58;-19694.25;;;9.78;100.00
27294;BME280;14785;52.556;13.430;2024-01-30T12:01:25;-19691.81;;;9.70;100.00
27294;BME280;14785;52.556;13.430;2024-01-30T12:03:51;-19702.44;;;10.05;100.00
27294;BME280;14785;52.556;13.430;2024-01-30T12:06:17;-19704.56;;;10.12;100.00
27294;BME280;14785;52.556;13.430;2024-01-30T12:08:42;-19699.72;;;9.96;100.00
27294;BME280;14785;52.556;13.430;2024-01-30T12:11:09;-19683.03;;;9.41;100.00
27294;BME280;14785;52.556;13.430;2024-01-30T12:13:35;-19698.66;;;9.93;100.00
27294;BME280;14785;52.556;13.430;2024-01-30T12:16:00;-19708.06;;;10.24;100.00
27294;BME280;14785;52.556;13.430;2024-01-30T12:18:26;-19716.09;;;10.50;100.00
27294;BME280;14785;52.556;13.430;2024-01-30T12:21:01;-19705.78;;;10.16;100.00
27294;BME280;14785;52.556;13.430;2024-01-30T12:23:27;-19721.56;;;10.68;100.00
27294;BME280;14785;52.556;13.430;2024-01-30T12:25:53;-19740.06;;;11.29;100.00
27294;BME280;14785;52.556;13.430;2024-01-30T12:28:20;-19749.16;;;11.59;100.00
27294;BME280;14785;52.556;13.430;2024-01-30T12:30:46;-19741.88;;;11.35;100.00
27294;BME280;14785;52.556;13.430;2024-01-30T12:33:20;-19737.94;;;11.22;100.00
27294;BME280;14785;52.556;13.430;2024-01-30T12:35:47;-19724.00;;;10.76;100.00
27294;BME280;14785;52.556;13.430;2024-01-30T12:38:15;-19730.34;;;10.97;100.00